Time,TemperatureF,DewpointF,PressureIn,WindDirection,WindDirectionDegrees,WindSpeedMPH,WindSpeedGustMPH,Humidity,HourlyPrecipIn,Conditions,Clouds,dailyrainin,SoftwareType,DateUTC
2013-06-04 00:01:00,59.7,32.0,0.00,SE,136,0.0,0.0,35,0.00,,---,0.00,VWS V14.01,2013-06-04 04:01:00,
2013-06-04 00:02:00,59.7,32.0,0.00,SE,136,0.0,0.0,35,0.00,,---,0.00,VWS V14.01,2013-06-04 04:02:00,
2013-06-04 00:03:00,59.7,32.0,0.00,SE,136,0.0,0.0,35,0.00,,---,0.00,VWS V14.01,2013-06-04 04:03:00,
2013-06-04 00:04:00,59.7,32.0,0.00,SE,136,0.0,0.0,35,0.00,,---,0.00,VWS V14.01,2013-06-04 04:04:00,
2013-06-04 00:10:00,59.5,31.9,0.00,SE,136,0.0,0.0,35,0.00,,---,0.00,VWS V14.01,2013-06-04 04:10:00,
2013-06-04 00:15:00,59.4,31.7,0.00,SE,136,0.0,0.0,35,0.00,,---,0.00,VWS V14.01,2013-06-04 04:15:00,
2013-06-04 00:20:00,59.2,31.6,0.00,SE,136,0.0,0.0,35,0.00,,---,0.00,VWS V14.01,2013-06-04 04:20:00,
2013-06-04 00:25:00,58.8,31.2,0.00,SE,136,0.0,0.0,35,0.00,,---,0.00,VWS V14.01,2013-06-04 04:25:00,
2013-06-04 00:31:00,58.6,31.1,0.00,SE,136,0.0,0.0,35,0.00,,---,0.00,VWS V14.01,2013-06-04 04:31:00,
2013-06-04 00:37:00,58.5,30.9,0.00,SE,136,0.0,0.0,35,0.00,,---,0.00,VWS V14.01,2013-06-04 04:37:00,
2013-06-04 00:42:00,58.3,30.8,0.00,SE,136,0.0,0.0,35,0.00,,---,0.00,VWS V14.01,2013-06-04 04:42:00,
2013-06-04 00:47:00,58.1,30.6,0.00,SE,136,0.0,0.0,35,0.00,,---,0.00,VWS V14.01,2013-06-04 04:47:00,
2013-06-04 00:52:00,57.9,30.5,0.00,SE,136,0.0,0.0,35,0.00,,---,0.00,VWS V14.01,2013-06-04 04:52:00,
2013-06-04 00:57:00,57.6,30.1,0.00,SE,136,0.0,0.0,35,0.00,,---,0.00,VWS V14.01,2013-06-04 04:57:00,
2013-06-04 01:03:00,57.2,30.5,0.00,SE,136,0.0,0.0,36,0.00,,---,0.00,VWS V14.01,2013-06-04 05:03:00,
2013-06-04 01:08:00,57.0,30.4,0.00,SE,136,0.0,0.0,36,0.00,,---,0.00,VWS V14.01,2013-06-04 05:08:00,
2013-06-04 01:14:00,56.8,30.9,0.00,SE,136,0.0,0.0,37,0.00,,---,0.00,VWS V14.01,2013-06-04 05:14:00,
2013-06-04 01:20:00,56.7,30.7,0.00,SE,136,0.0,0.0,37,0.00,,---,0.00,VWS V14.01,2013-06-04 05:20:00,
2013-06-04 01:25:00,56.3,29.7,0.00,SE,136,0.0,0.0,36,0.00,,---,0.00,VWS V14.01,2013-06-04 05:25:00,
2013-06-04 01:32:00,56.1,30.2,0.00,SE,136,0.0,0.0,37,0.00,,---,0.00,VWS V14.01,2013-06-04 05:32:00,
2013-06-04 01:37:00,55.9,30.1,0.00,SE,136,0.0,0.0,37,0.00,,---,0.00,VWS V14.01,2013-06-04 05:37:00,
2013-06-04 01:43:00,55.8,29.9,0.00,SE,136,0.0,0.0,37,0.00,,---,0.00,VWS V14.01,2013-06-04 05:43:00,
2013-06-04 01:48:00,55.8,29.9,0.00,SE,136,0.0,0.0,37,0.00,,---,0.00,VWS V14.01,2013-06-04 05:48:00,
2013-06-04 01:54:00,55.6,29.7,0.00,SE,136,0.0,0.0,37,0.00,,---,0.00,VWS V14.01,2013-06-04 05:54:00,
2013-06-04 02:00:00,55.6,29.7,0.00,SE,136,0.0,0.0,37,0.00,,---,0.00,VWS V14.01,2013-06-04 06:00:00,
2013-06-04 02:05:00,55.2,29.4,0.00,SE,136,0.0,0.0,37,0.00,,---,0.00,VWS V14.01,2013-06-04 06:05:00,
2013-06-04 02:10:00,54.9,29.1,0.00,SE,136,0.0,0.0,37,0.00,,---,0.00,VWS V14.01,2013-06-04 06:10:00,
2013-06-04 02:16:00,54.7,28.9,0.00,SE,136,0.0,0.0,37,0.00,,---,0.00,VWS V14.01,2013-06-04 06:16:00,
2013-06-04 02:21:00,54.5,29.4,0.00,SE,136,0.0,0.0,38,0.00,,---,0.00,VWS V14.01,2013-06-04 06:21:00,
2013-06-04 02:27:00,54.3,29.3,0.00,SE,136,0.0,0.0,38,0.00,,---,0.00,VWS V14.01,2013-06-04 06:27:00,
2013-06-04 02:32:00,54.1,29.1,0.00,SE,136,0.0,0.0,38,0.00,,---,0.00,VWS V14.01,2013-06-04 06:32:00,
2013-06-04 02:37:00,54.0,29.0,0.00,SE,136,0.0,0.0,38,0.00,,---,0.00,VWS V14.01,2013-06-04 06:37:00,
2013-06-04 02:44:00,54.0,29.0,0.00,SE,136,0.0,0.0,38,0.00,,---,0.00,VWS V14.01,2013-06-04 06:44:00,
2013-06-04 02:49:00,53.8,28.8,0.00,SE,136,0.0,0.0,38,0.00,,---,0.00,VWS V14.01,2013-06-04 06:49:00,
2013-06-04 02:54:00,53.6,28.6,0.00,SE,136,0.0,0.0,38,0.00,,---,0.00,VWS V14.01,2013-06-04 06:54:00,
2013-06-04 02:59:00,53.4,28.5,0.00,SE,136,0.0,0.0,38,0.00,,---,0.00,VWS V14.01,2013-06-04 06:59:00,
2013-06-04 03:04:00,53.4,28.5,0.00,SE,136,0.0,0.0,38,0.00,,---,0.00,VWS V14.01,2013-06-04 07:04:00,
2013-06-04 03:09:00,53.2,28.3,0.00,SE,136,0.0,0.0,38,0.00,,---,0.00,VWS V14.01,2013-06-04 07:09:00,
2013-06-04 03:15:00,52.9,28.0,0.00,SE,136,0.0,0.0,38,0.00,,---,0.00,VWS V14.01,2013-06-04 07:15:00,
2013-06-04 03:20:00,52.7,27.8,0.00,SE,136,0.0,0.0,38,0.00,,---,0.00,VWS V14.01,2013-06-04 07:20:00,
2013-06-04 03:26:00,52.5,28.3,0.00,SE,136,0.0,0.0,39,0.00,,---,0.00,VWS V14.01,2013-06-04 07:26:00,
2013-06-04 03:31:00,52.3,28.1,0.00,SE,136,0.0,0.0,39,0.00,,---,0.00,VWS V14.01,2013-06-04 07:31:00,
2013-06-04 03:36:00,52.2,28.0,0.00,SE,136,0.0,0.0,39,0.00,,---,0.00,VWS V14.01,2013-06-04 07:36:00,
2013-06-04 03:42:00,52.0,27.8,0.00,SE,136,0.0,0.0,39,0.00,,---,0.00,VWS V14.01,2013-06-04 07:42:00,
2013-06-04 03:47:00,51.8,27.6,0.00,SE,136,0.0,0.0,39,0.00,,---,0.00,VWS V14.01,2013-06-04 07:47:00,
2013-06-04 03:53:00,51.4,27.3,0.00,SE,136,0.0,0.0,39,0.00,,---,0.00,VWS V14.01,2013-06-04 07:53:00,
2013-06-04 03:59:00,51.3,27.2,0.00,SE,136,0.0,0.0,39,0.00,,---,0.00,VWS V14.01,2013-06-04 07:59:00,
2013-06-04 04:04:00,51.3,27.2,0.00,SE,136,0.0,0.0,39,0.00,,---,0.00,VWS V14.01,2013-06-04 08:04:00,
2013-06-04 04:09:00,51.1,27.0,0.00,SE,136,0.0,0.0,39,0.00,,---,0.00,VWS V14.01,2013-06-04 08:09:00,
2013-06-04 04:14:00,50.9,26.8,0.00,SE,136,0.0,0.0,39,0.00,,---,0.00,VWS V14.01,2013-06-04 08:14:00,
2013-06-04 04:19:00,50.7,27.3,0.00,SE,136,0.0,0.0,40,0.00,,---,0.00,VWS V14.01,2013-06-04 08:19:00,
2013-06-04 04:25:00,50.7,27.3,0.00,SE,136,0.0,0.0,40,0.00,,---,0.00,VWS V14.01,2013-06-04 08:25:00,
2013-06-04 04:30:00,50.7,27.3,0.00,SE,136,0.0,0.0,40,0.00,,---,0.00,VWS V14.01,2013-06-04 08:30:00,
2013-06-04 04:36:00,50.9,27.5,0.00,SE,136,0.0,0.0,40,0.00,,---,0.00,VWS V14.01,2013-06-04 08:36:00,
2013-06-04 04:41:00,50.9,27.5,0.00,SE,136,0.0,0.0,40,0.00,,---,0.00,VWS V14.01,2013-06-04 08:41:00,
2013-06-04 04:46:00,50.5,27.1,0.00,SE,136,0.0,0.0,40,0.00,,---,0.00,VWS V14.01,2013-06-04 08:46:00,
2013-06-04 04:52:00,50.5,27.7,0.00,SE,136,0.0,0.0,41,0.00,,---,0.00,VWS V14.01,2013-06-04 08:52:00,
2013-06-04 04:57:00,50.4,27.6,0.00,SE,136,0.0,0.0,41,0.00,,---,0.00,VWS V14.01,2013-06-04 08:57:00,
2013-06-04 05:02:00,50.2,27.4,0.00,SE,136,0.0,0.0,41,0.00,,---,0.00,VWS V14.01,2013-06-04 09:02:00,
2013-06-04 05:07:00,50.0,27.2,0.00,SE,136,0.0,0.0,41,0.00,,---,0.00,VWS V14.01,2013-06-04 09:07:00,
2013-06-04 05:12:00,49.6,26.9,0.00,SE,136,0.0,0.0,41,0.00,,---,0.00,VWS V14.01,2013-06-04 09:12:00,
2013-06-04 05:18:00,49.3,26.6,0.00,SE,136,0.0,0.0,41,0.00,,---,0.00,VWS V14.01,2013-06-04 09:18:00,
2013-06-04 05:23:00,49.1,26.4,0.00,SE,136,0.0,0.0,41,0.00,,---,0.00,VWS V14.01,2013-06-04 09:23:00,
2013-06-04 05:29:00,48.7,26.1,0.00,SE,136,0.0,0.0,41,0.00,,---,0.00,VWS V14.01,2013-06-04 09:29:00,
2013-06-04 05:35:00,48.6,26.0,0.00,SE,136,0.0,0.0,41,0.00,,---,0.00,VWS V14.01,2013-06-04 09:35:00,
2013-06-04 05:40:00,48.4,25.8,0.00,SE,136,0.0,0.0,41,0.00,,---,0.00,VWS V14.01,2013-06-04 09:40:00,
2013-06-04 05:46:00,48.0,25.5,0.00,SE,136,0.0,0.0,41,0.00,,---,0.00,VWS V14.01,2013-06-04 09:46:00,
2013-06-04 05:51:00,47.7,25.1,0.00,SE,136,0.0,0.0,41,0.00,,---,0.00,VWS V14.01,2013-06-04 09:51:00,
2013-06-04 05:57:00,47.5,25.0,0.00,SE,136,0.0,0.0,41,0.00,,---,0.00,VWS V14.01,2013-06-04 09:57:00,
2013-06-04 06:02:00,47.3,24.8,0.00,SE,136,0.0,0.0,41,0.00,,---,0.00,VWS V14.01,2013-06-04 10:02:00,
2013-06-04 06:07:00,47.3,24.8,0.00,SE,136,0.0,0.0,41,0.00,,---,0.00,VWS V14.01,2013-06-04 10:07:00,
2013-06-04 06:12:00,47.3,24.8,0.00,SE,136,0.0,0.0,41,0.00,,---,0.00,VWS V14.01,2013-06-04 10:12:00,
2013-06-04 06:17:00,47.3,24.8,0.00,SE,136,0.0,0.0,41,0.00,,---,0.00,VWS V14.01,2013-06-04 10:17:00,
2013-06-04 06:22:00,47.5,25.0,0.00,SE,136,0.0,0.0,41,0.00,,---,0.00,VWS V14.01,2013-06-04 10:22:00,
2013-06-04 06:28:00,47.7,25.1,0.00,SE,136,0.0,0.0,41,0.00,,---,0.00,VWS V14.01,2013-06-04 10:28:00,
2013-06-04 06:33:00,48.0,25.5,0.00,SE,136,0.0,0.0,41,0.00,,---,0.00,VWS V14.01,2013-06-04 10:33:00,
2013-06-04 06:39:00,48.2,25.0,0.00,SE,136,0.0,0.0,40,0.00,,---,0.00,VWS V14.01,2013-06-04 10:39:00,
2013-06-04 06:44:00,48.6,26.0,0.00,SE,136,0.0,0.0,41,0.00,,---,0.00,VWS V14.01,2013-06-04 10:44:00,
2013-06-04 06:49:00,48.9,26.3,0.00,SE,136,0.0,0.0,41,0.00,,---,0.00,VWS V14.01,2013-06-04 10:49:00,
2013-06-04 06:54:00,49.5,26.8,0.00,SE,136,0.0,0.0,41,0.00,,---,0.00,VWS V14.01,2013-06-04 10:54:00,
2013-06-04 06:59:00,50.0,27.2,0.00,SE,136,0.0,0.0,41,0.00,,---,0.00,VWS V14.01,2013-06-04 10:59:00,
2013-06-04 07:04:00,50.5,27.7,0.00,SE,136,0.0,0.0,41,0.00,,---,0.00,VWS V14.01,2013-06-04 11:04:00,
2013-06-04 07:10:00,51.3,27.8,0.00,SE,136,0.0,0.0,40,0.00,,---,0.00,VWS V14.01,2013-06-04 11:10:00,
2013-06-04 07:16:00,52.0,27.8,0.00,SE,136,0.0,0.0,39,0.00,,---,0.00,VWS V14.01,2013-06-04 11:16:00,
2013-06-04 07:22:00,52.7,28.5,0.00,SE,136,0.0,0.0,39,0.00,,---,0.00,VWS V14.01,2013-06-04 11:22:00,
2013-06-04 07:27:00,53.2,28.9,0.00,SE,136,0.0,0.0,39,0.00,,---,0.00,VWS V14.01,2013-06-04 11:27:00,
2013-06-04 07:32:00,54.0,29.0,0.00,SE,136,0.0,0.0,38,0.00,,---,0.00,VWS V14.01,2013-06-04 11:32:00,
2013-06-04 07:38:00,54.5,28.8,0.00,SE,136,0.0,0.0,37,0.00,,---,0.00,VWS V14.01,2013-06-04 11:38:00,
2013-06-04 07:43:00,55.0,28.6,0.00,SE,136,0.0,0.0,36,0.00,,---,0.00,VWS V14.01,2013-06-04 11:43:00,
2013-06-04 07:48:00,55.4,28.2,0.00,SE,136,0.0,0.0,35,0.00,,---,0.00,VWS V14.01,2013-06-04 11:48:00,
2013-06-04 07:54:00,56.1,28.9,0.00,SE,136,0.0,0.0,35,0.00,,---,0.00,VWS V14.01,2013-06-04 11:54:00,
2013-06-04 08:01:00,56.7,29.3,0.00,SE,136,0.0,0.0,35,0.00,,---,0.00,VWS V14.01,2013-06-04 12:01:00,
2013-06-04 08:06:00,57.2,29.8,0.00,SE,136,0.0,0.0,35,0.00,,---,0.00,VWS V14.01,2013-06-04 12:06:00,
2013-06-04 08:11:00,57.6,30.1,0.00,SE,136,0.0,0.0,35,0.00,,---,0.00,VWS V14.01,2013-06-04 12:11:00,
2013-06-04 08:17:00,57.9,30.5,0.00,SE,140,0.0,0.0,35,0.00,,---,0.00,VWS V14.01,2013-06-04 12:17:00,
2013-06-04 08:22:00,58.6,31.1,0.00,SE,140,0.0,0.0,35,0.00,,---,0.00,VWS V14.01,2013-06-04 12:22:00,
2013-06-04 08:27:00,59.0,31.4,0.00,SE,139,0.0,0.0,35,0.00,,---,0.00,VWS V14.01,2013-06-04 12:27:00,
2013-06-04 08:32:00,59.2,31.6,0.00,NNE,28,0.0,0.0,35,0.00,,---,0.00,VWS V14.01,2013-06-04 12:32:00,
2013-06-04 08:38:00,59.7,32.0,0.00,SE,143,0.0,0.0,35,0.00,,---,0.00,VWS V14.01,2013-06-04 12:38:00,
2013-06-04 08:43:00,60.1,32.4,0.00,SSE,158,0.0,0.0,35,0.00,,---,0.00,VWS V14.01,2013-06-04 12:43:00,
2013-06-04 08:48:00,60.4,32.0,0.00,ESE,113,0.0,0.0,34,0.00,,---,0.00,VWS V14.01,2013-06-04 12:48:00,
2013-06-04 08:53:00,60.8,32.3,0.00,SE,135,0.0,0.0,34,0.00,,---,0.00,VWS V14.01,2013-06-04 12:53:00,
2013-06-04 08:58:00,61.0,32.4,0.00,North,5,0.0,0.0,34,0.00,,---,0.00,VWS V14.01,2013-06-04 12:58:00,
2013-06-04 09:03:00,61.5,32.9,0.00,North,5,0.0,0.0,34,0.00,,---,0.00,VWS V14.01,2013-06-04 13:03:00,
2013-06-04 09:09:00,61.9,33.2,0.00,NNE,30,0.0,0.0,34,0.00,,---,0.00,VWS V14.01,2013-06-04 13:09:00,
2013-06-04 09:14:00,62.2,33.5,0.00,SSE,168,0.0,0.0,34,0.00,,---,0.00,VWS V14.01,2013-06-04 13:14:00,
2013-06-04 09:20:00,63.0,34.2,0.00,South,172,0.0,0.0,34,0.00,,---,0.00,VWS V14.01,2013-06-04 13:20:00,
2013-06-04 09:25:00,63.5,34.7,0.00,South,169,0.0,0.0,34,0.00,,---,0.00,VWS V14.01,2013-06-04 13:25:00,
2013-06-04 09:31:00,64.0,35.1,0.00,SW,214,0.0,0.0,34,0.00,,---,0.00,VWS V14.01,2013-06-04 13:31:00,
2013-06-04 09:36:00,64.2,35.3,0.00,SE,126,0.0,0.0,34,0.00,,---,0.00,VWS V14.01,2013-06-04 13:36:00,
2013-06-04 09:41:00,64.8,35.0,0.00,SSE,168,0.0,3.1,33,0.00,,---,0.00,VWS V14.01,2013-06-04 13:41:00,
2013-06-04 09:47:00,65.7,35.8,0.00,North,357,0.0,0.0,33,0.00,,---,0.00,VWS V14.01,2013-06-04 13:47:00,
2013-06-04 09:52:00,65.8,36.0,0.00,NE,38,0.0,0.0,33,0.00,,---,0.00,VWS V14.01,2013-06-04 13:52:00,
2013-06-04 09:57:00,66.2,36.3,0.00,SSE,159,0.0,0.0,33,0.00,,---,0.00,VWS V14.01,2013-06-04 13:57:00,
2013-06-04 10:02:00,67.3,37.2,0.00,SSE,162,0.0,0.0,33,0.00,,---,0.00,VWS V14.01,2013-06-04 14:02:00,
2013-06-04 10:09:00,67.6,37.5,0.00,SSE,168,0.0,0.0,33,0.00,,---,0.00,VWS V14.01,2013-06-04 14:09:00,
2013-06-04 10:14:00,68.7,38.5,0.00,SSE,151,2.2,2.7,33,0.00,,---,0.00,VWS V14.01,2013-06-04 14:14:00,
2013-06-04 10:19:00,69.1,38.8,0.00,NNE,18,0.0,0.0,33,0.00,,---,0.00,VWS V14.01,2013-06-04 14:19:00,
2013-06-04 10:24:00,69.8,38.6,0.00,SSE,162,0.0,0.0,32,0.00,,---,0.00,VWS V14.01,2013-06-04 14:24:00,
2013-06-04 10:30:00,70.3,39.1,0.00,NNE,24,0.0,0.0,32,0.00,,---,0.00,VWS V14.01,2013-06-04 14:30:00,
2013-06-04 10:36:00,71.2,39.9,0.00,WSW,242,0.0,0.0,32,0.00,,---,0.00,VWS V14.01,2013-06-04 14:36:00,
2013-06-04 10:42:00,72.1,40.7,0.00,SW,234,0.0,3.6,32,0.00,,---,0.00,VWS V14.01,2013-06-04 14:42:00,
2013-06-04 10:48:00,72.9,41.3,0.00,SSE,166,0.0,0.0,32,0.00,,---,0.00,VWS V14.01,2013-06-04 14:48:00,
2013-06-04 10:53:00,73.4,41.0,0.00,WNW,292,0.0,2.2,31,0.00,,---,0.00,VWS V14.01,2013-06-04 14:53:00,
2013-06-04 10:58:00,73.6,41.1,0.00,SSE,151,0.0,2.7,31,0.00,,---,0.00,VWS V14.01,2013-06-04 14:58:00,
2013-06-04 11:04:00,73.8,41.3,0.00,SSE,163,0.0,0.0,31,0.00,,---,0.00,VWS V14.01,2013-06-04 15:04:00,
2013-06-04 11:10:00,73.6,41.1,0.00,NNW,341,0.0,0.0,31,0.00,,---,0.00,VWS V14.01,2013-06-04 15:10:00,
2013-06-04 11:15:00,72.9,41.3,0.00,South,187,0.0,2.7,32,0.00,,---,0.00,VWS V14.01,2013-06-04 15:15:00,
2013-06-04 11:21:00,73.2,41.6,0.00,South,191,2.2,2.7,32,0.00,,---,0.00,VWS V14.01,2013-06-04 15:21:00,
2013-06-04 11:27:00,74.1,41.6,0.00,NW,320,0.0,0.0,31,0.00,,---,0.00,VWS V14.01,2013-06-04 15:27:00,
2013-06-04 11:32:00,75.2,42.5,0.00,SE,143,0.0,2.2,31,0.00,,---,0.00,VWS V14.01,2013-06-04 15:32:00,
2013-06-04 11:37:00,74.7,42.0,0.00,NNE,24,0.0,0.0,31,0.00,,---,0.00,VWS V14.01,2013-06-04 15:37:00,
2013-06-04 11:42:00,74.8,42.2,0.00,SSE,159,0.0,0.0,31,0.00,,---,0.00,VWS V14.01,2013-06-04 15:42:00,
2013-06-04 11:47:00,75.6,42.8,0.00,SE,137,0.0,2.7,31,0.00,,---,0.00,VWS V14.01,2013-06-04 15:47:00,
2013-06-04 11:53:00,76.5,43.6,0.00,South,179,0.0,0.0,31,0.00,,---,0.00,VWS V14.01,2013-06-04 15:53:00,
2013-06-04 11:59:00,76.1,43.3,0.00,SSE,166,0.0,0.0,31,0.00,,---,0.00,VWS V14.01,2013-06-04 15:59:00,
2013-06-04 12:04:00,76.1,43.3,0.00,SSE,168,0.0,0.0,31,0.00,,---,0.00,VWS V14.01,2013-06-04 16:04:00,
2013-06-04 12:09:00,75.9,43.1,0.00,ESE,112,0.0,0.0,31,0.00,,---,0.00,VWS V14.01,2013-06-04 16:09:00,
2013-06-04 12:14:00,76.1,43.3,0.00,ESE,114,0.0,0.0,31,0.00,,---,0.00,VWS V14.01,2013-06-04 16:14:00,
2013-06-04 12:19:00,76.3,43.5,0.00,SSE,151,0.0,0.0,31,0.00,,---,0.00,VWS V14.01,2013-06-04 16:19:00,
2013-06-04 12:24:00,76.3,43.5,0.00,SSW,202,0.0,2.2,31,0.00,,---,0.00,VWS V14.01,2013-06-04 16:24:00,
2013-06-04 12:29:00,75.9,43.1,0.00,South,181,2.2,2.2,31,0.00,,---,0.00,VWS V14.01,2013-06-04 16:29:00,
2013-06-04 12:34:00,75.7,43.0,0.00,WNW,301,3.1,3.1,31,0.00,,---,0.00,VWS V14.01,2013-06-04 16:34:00,
2013-06-04 12:39:00,75.4,42.7,0.00,SSE,160,2.2,2.2,31,0.00,,---,0.00,VWS V14.01,2013-06-04 16:39:00,
2013-06-04 12:45:00,74.8,42.2,0.00,South,177,2.2,2.2,31,0.00,,---,0.00,VWS V14.01,2013-06-04 16:45:00,
2013-06-04 12:52:00,74.7,42.0,0.00,South,170,0.0,0.0,31,0.00,,---,0.00,VWS V14.01,2013-06-04 16:52:00,
2013-06-04 12:57:00,74.5,41.9,0.00,West,268,0.0,0.0,31,0.00,,---,0.00,VWS V14.01,2013-06-04 16:57:00,
2013-06-04 13:02:00,74.7,42.0,0.00,SSE,147,0.0,0.0,31,0.00,,---,0.00,VWS V14.01,2013-06-04 17:02:00,
2013-06-04 13:07:00,74.8,42.2,0.00,SSE,167,0.0,2.7,31,0.00,,---,0.00,VWS V14.01,2013-06-04 17:07:00,
2013-06-04 13:13:00,74.7,42.0,0.00,SSE,160,0.0,0.0,31,0.00,,---,0.00,VWS V14.01,2013-06-04 17:13:00,
2013-06-04 13:18:00,73.9,41.4,0.00,SW,229,0.0,0.0,31,0.00,,---,0.00,VWS V14.01,2013-06-04 17:18:00,
2013-06-04 13:23:00,73.8,41.3,0.00,SSE,168,0.0,0.0,31,0.00,,---,0.00,VWS V14.01,2013-06-04 17:23:00,
2013-06-04 13:28:00,73.6,41.1,0.00,South,172,0.0,0.0,31,0.00,,---,0.00,VWS V14.01,2013-06-04 17:28:00,
2013-06-04 13:34:00,73.4,41.0,0.00,South,181,0.0,0.0,31,0.00,,---,0.00,VWS V14.01,2013-06-04 17:34:00,
2013-06-04 13:40:00,73.0,41.5,0.00,SSE,164,0.0,0.0,32,0.00,,---,0.00,VWS V14.01,2013-06-04 17:40:00,
2013-06-04 13:46:00,72.7,41.2,0.00,SSE,163,2.2,2.7,32,0.00,,---,0.00,VWS V14.01,2013-06-04 17:46:00,
2013-06-04 13:51:00,72.5,41.0,0.00,SSE,163,0.0,0.0,32,0.00,,---,0.00,VWS V14.01,2013-06-04 17:51:00,
2013-06-04 13:56:00,72.1,40.7,0.00,SSE,167,0.0,0.0,32,0.00,,---,0.00,VWS V14.01,2013-06-04 17:56:00,
2013-06-04 14:02:00,72.3,40.8,0.00,North,11,0.0,0.0,32,0.00,,---,0.00,VWS V14.01,2013-06-04 18:02:00,
2013-06-04 14:07:00,72.5,41.0,0.00,SE,143,0.0,0.0,32,0.00,,---,0.00,VWS V14.01,2013-06-04 18:07:00,
2013-06-04 14:12:00,72.7,41.2,0.00,NNW,331,0.0,2.2,32,0.00,,---,0.00,VWS V14.01,2013-06-04 18:12:00,
2013-06-04 14:17:00,72.7,41.2,0.00,SSW,202,0.0,0.0,32,0.00,,---,0.00,VWS V14.01,2013-06-04 18:17:00,
2013-06-04 14:23:00,72.7,41.2,0.00,SSE,147,0.0,0.0,32,0.00,,---,0.00,VWS V14.01,2013-06-04 18:23:00,
2013-06-04 14:28:00,72.3,40.8,0.00,SSW,209,0.0,2.7,32,0.00,,---,0.00,VWS V14.01,2013-06-04 18:28:00,
2013-06-04 14:34:00,72.7,41.2,0.00,SSE,165,0.0,0.0,32,0.00,,---,0.00,VWS V14.01,2013-06-04 18:34:00,
2013-06-04 14:39:00,72.7,41.2,0.00,North,357,0.0,2.7,32,0.00,,---,0.00,VWS V14.01,2013-06-04 18:39:00,
2013-06-04 14:45:00,72.9,41.3,0.00,North,1,2.2,2.7,32,0.00,,---,0.00,VWS V14.01,2013-06-04 18:45:00,
2013-06-04 14:51:00,72.9,41.3,0.00,South,177,0.0,0.0,32,0.00,,---,0.00,VWS V14.01,2013-06-04 18:51:00,
2013-06-04 14:56:00,72.9,41.3,0.00,South,178,0.0,0.0,32,0.00,,---,0.00,VWS V14.01,2013-06-04 18:56:00,
2013-06-04 15:01:00,72.7,41.2,0.00,SE,140,0.0,2.7,32,0.00,,---,0.00,VWS V14.01,2013-06-04 19:01:00,
2013-06-04 15:07:00,72.7,41.2,0.00,SE,133,0.0,0.0,32,0.00,,---,0.00,VWS V14.01,2013-06-04 19:07:00,
2013-06-04 15:13:00,72.9,41.3,0.00,South,174,0.0,0.0,32,0.00,,---,0.00,VWS V14.01,2013-06-04 19:13:00,
2013-06-04 15:18:00,72.9,41.3,0.00,WNW,291,0.0,0.0,32,0.00,,---,0.00,VWS V14.01,2013-06-04 19:18:00,
2013-06-04 15:24:00,72.9,41.3,0.00,South,185,0.0,0.0,32,0.00,,---,0.00,VWS V14.01,2013-06-04 19:24:00,
2013-06-04 15:30:00,73.0,41.5,0.00,SSE,147,0.0,0.0,32,0.00,,---,0.00,VWS V14.01,2013-06-04 19:30:00,
2013-06-04 15:35:00,73.0,41.5,0.00,NW,307,0.0,0.0,32,0.00,,---,0.00,VWS V14.01,2013-06-04 19:35:00,
2013-06-04 15:41:00,73.0,41.5,0.00,West,278,0.0,0.0,32,0.00,,---,0.00,VWS V14.01,2013-06-04 19:41:00,
2013-06-04 15:47:00,72.9,41.3,0.00,West,267,0.0,0.0,32,0.00,,---,0.00,VWS V14.01,2013-06-04 19:47:00,
2013-06-04 15:52:00,73.0,41.5,0.00,West,267,0.0,0.0,32,0.00,,---,0.00,VWS V14.01,2013-06-04 19:52:00,
2013-06-04 15:58:00,73.2,41.6,0.00,WSW,257,0.0,0.0,32,0.00,,---,0.00,VWS V14.01,2013-06-04 19:58:00,
2013-06-04 16:03:00,73.4,41.0,0.00,NE,56,0.0,0.0,31,0.00,,---,0.00,VWS V14.01,2013-06-04 20:03:00,
2013-06-04 16:08:00,73.2,41.6,0.00,SE,139,3.1,3.6,32,0.00,,---,0.00,VWS V14.01,2013-06-04 20:08:00,
2013-06-04 16:13:00,73.0,41.5,0.00,NNE,14,0.0,2.2,32,0.00,,---,0.00,VWS V14.01,2013-06-04 20:13:00,
2013-06-04 16:18:00,73.0,41.5,0.00,North,4,0.0,0.0,32,0.00,,---,0.00,VWS V14.01,2013-06-04 20:18:00,
2013-06-04 16:24:00,73.0,41.5,0.00,NNW,327,0.0,0.0,32,0.00,,---,0.00,VWS V14.01,2013-06-04 20:24:00,
2013-06-04 16:30:00,73.0,41.5,0.00,WNW,303,0.0,0.0,32,0.00,,---,0.00,VWS V14.01,2013-06-04 20:30:00,
2013-06-04 16:35:00,72.9,41.3,0.00,SSW,196,0.0,0.0,32,0.00,,---,0.00,VWS V14.01,2013-06-04 20:35:00,
2013-06-04 16:40:00,72.9,41.3,0.00,SSW,196,0.0,0.0,32,0.00,,---,0.00,VWS V14.01,2013-06-04 20:40:00,
2013-06-04 16:46:00,73.0,41.5,0.00,SSW,196,0.0,0.0,32,0.00,,---,0.00,VWS V14.01,2013-06-04 20:46:00,
2013-06-04 16:52:00,73.2,41.6,0.00,SSW,196,0.0,0.0,32,0.00,,---,0.00,VWS V14.01,2013-06-04 20:52:00,
2013-06-04 16:58:00,73.2,41.6,0.00,SSW,196,0.0,0.0,32,0.00,,---,0.00,VWS V14.01,2013-06-04 20:58:00,
2013-06-04 17:03:00,72.9,41.3,0.00,SSW,196,0.0,0.0,32,0.00,,---,0.00,VWS V14.01,2013-06-04 21:03:00,
2013-06-04 17:09:00,72.5,41.0,0.00,SSW,196,0.0,0.0,32,0.00,,---,0.00,VWS V14.01,2013-06-04 21:09:00,
2013-06-04 17:15:00,72.1,40.7,0.00,SSW,196,0.0,0.0,32,0.00,,---,0.00,VWS V14.01,2013-06-04 21:15:00,
2013-06-04 17:20:00,72.1,40.7,0.00,SSW,196,0.0,0.0,32,0.00,,---,0.00,VWS V14.01,2013-06-04 21:20:00,
2013-06-04 17:26:00,72.0,40.5,0.00,SSW,196,0.0,0.0,32,0.00,,---,0.00,VWS V14.01,2013-06-04 21:26:00,
2013-06-04 17:32:00,72.0,40.5,0.00,SSW,196,0.0,0.0,32,0.00,,---,0.00,VWS V14.01,2013-06-04 21:32:00,
2013-06-04 17:37:00,72.1,40.7,0.00,SSW,196,0.0,0.0,32,0.00,,---,0.00,VWS V14.01,2013-06-04 21:37:00,
2013-06-04 17:42:00,72.1,40.7,0.00,SSW,196,0.0,0.0,32,0.00,,---,0.00,VWS V14.01,2013-06-04 21:42:00,
2013-06-04 17:47:00,72.3,40.8,0.00,SSW,196,0.0,0.0,32,0.00,,---,0.00,VWS V14.01,2013-06-04 21:47:00,
2013-06-04 17:54:00,72.1,40.7,0.00,SSW,196,0.0,0.0,32,0.00,,---,0.00,VWS V14.01,2013-06-04 21:54:00,
2013-06-04 17:59:00,72.1,40.7,0.00,SSW,196,0.0,0.0,32,0.00,,---,0.00,VWS V14.01,2013-06-04 21:59:00,
2013-06-04 18:05:00,72.0,40.5,0.00,SSW,196,0.0,0.0,32,0.00,,---,0.00,VWS V14.01,2013-06-04 22:05:00,
2013-06-04 18:10:00,71.6,40.2,0.00,SSW,196,0.0,0.0,32,0.00,,---,0.00,VWS V14.01,2013-06-04 22:10:00,
2013-06-04 18:15:00,71.4,40.0,0.00,SSW,196,0.0,0.0,32,0.00,,---,0.00,VWS V14.01,2013-06-04 22:15:00,
2013-06-04 18:20:00,71.4,40.0,0.00,SSW,196,0.0,0.0,32,0.00,,---,0.00,VWS V14.01,2013-06-04 22:20:00,
2013-06-04 18:26:00,71.6,40.2,0.00,SSW,196,0.0,0.0,32,0.00,,---,0.00,VWS V14.01,2013-06-04 22:26:00,
2013-06-04 18:32:00,71.4,40.0,0.00,SSW,196,0.0,0.0,32,0.00,,---,0.00,VWS V14.01,2013-06-04 22:32:00,
2013-06-04 18:38:00,71.2,39.9,0.00,SSW,196,0.0,0.0,32,0.00,,---,0.00,VWS V14.01,2013-06-04 22:38:00,
2013-06-04 18:44:00,71.1,39.7,0.00,SSW,196,0.0,0.0,32,0.00,,---,0.00,VWS V14.01,2013-06-04 22:44:00,
2013-06-04 18:49:00,70.7,39.4,0.00,SSE,149,0.0,2.2,32,0.00,,---,0.00,VWS V14.01,2013-06-04 22:49:00,
2013-06-04 18:54:00,70.5,39.3,0.00,SSE,149,0.0,0.0,32,0.00,,---,0.00,VWS V14.01,2013-06-04 22:54:00,
2013-06-04 19:00:00,70.0,38.8,0.00,SSE,149,0.0,0.0,32,0.00,,---,0.00,VWS V14.01,2013-06-04 23:00:00,
2013-06-04 19:05:00,69.6,39.3,0.00,SSE,149,0.0,0.0,33,0.00,,---,0.00,VWS V14.01,2013-06-04 23:05:00,
2013-06-04 19:11:00,69.3,39.0,0.00,SSE,149,0.0,0.0,33,0.00,,---,0.00,VWS V14.01,2013-06-04 23:11:00,
2013-06-04 19:16:00,69.1,38.8,0.00,SSE,149,0.0,0.0,33,0.00,,---,0.00,VWS V14.01,2013-06-04 23:16:00,
2013-06-04 19:22:00,68.7,38.5,0.00,SSE,149,0.0,0.0,33,0.00,,---,0.00,VWS V14.01,2013-06-04 23:22:00,
2013-06-04 19:27:00,68.5,38.3,0.00,SSE,149,0.0,0.0,33,0.00,,---,0.00,VWS V14.01,2013-06-04 23:27:00,
2013-06-04 19:32:00,68.4,38.2,0.00,SSE,149,0.0,0.0,33,0.00,,---,0.00,VWS V14.01,2013-06-04 23:32:00,
2013-06-04 19:38:00,68.2,38.0,0.00,SSE,149,0.0,0.0,33,0.00,,---,0.00,VWS V14.01,2013-06-04 23:38:00,
2013-06-04 19:43:00,67.8,37.7,0.00,SSE,149,0.0,0.0,33,0.00,,---,0.00,VWS V14.01,2013-06-04 23:43:00,
2013-06-04 19:49:00,67.5,37.4,0.00,SSE,149,0.0,0.0,33,0.00,,---,0.00,VWS V14.01,2013-06-04 23:49:00,
2013-06-04 19:55:00,67.3,37.2,0.00,SSE,149,0.0,0.0,33,0.00,,---,0.00,VWS V14.01,2013-06-04 23:55:00,
2013-06-04 20:00:00,66.9,36.9,0.00,SSE,149,0.0,0.0,33,0.00,,---,0.00,VWS V14.01,2013-06-05 00:00:00,
2013-06-04 20:06:00,66.6,36.6,0.00,SSE,149,0.0,0.0,33,0.00,,---,0.00,VWS V14.01,2013-06-05 00:06:00,
2013-06-04 20:12:00,66.2,36.3,0.00,SSE,149,0.0,0.0,33,0.00,,---,0.00,VWS V14.01,2013-06-05 00:12:00,
2013-06-04 20:17:00,65.8,36.0,0.00,SSE,149,0.0,0.0,33,0.00,,---,0.00,VWS V14.01,2013-06-05 00:17:00,
2013-06-04 20:22:00,65.5,35.6,0.00,SSE,149,0.0,0.0,33,0.00,,---,0.00,VWS V14.01,2013-06-05 00:22:00,
2013-06-04 20:28:00,64.9,35.2,0.00,SSE,149,0.0,0.0,33,0.00,,---,0.00,VWS V14.01,2013-06-05 00:28:00,
2013-06-04 20:34:00,64.4,34.7,0.00,SSE,149,0.0,0.0,33,0.00,,---,0.00,VWS V14.01,2013-06-05 00:34:00,
2013-06-04 20:40:00,63.9,35.0,0.00,SSE,149,0.0,0.0,34,0.00,,---,0.00,VWS V14.01,2013-06-05 00:40:00,
2013-06-04 20:45:00,63.3,34.5,0.00,SSE,149,0.0,0.0,34,0.00,,---,0.00,VWS V14.01,2013-06-05 00:45:00,
2013-06-04 20:50:00,63.0,34.2,0.00,SSE,149,0.0,0.0,34,0.00,,---,0.00,VWS V14.01,2013-06-05 00:50:00,
2013-06-04 20:55:00,62.6,33.9,0.00,SSE,149,0.0,0.0,34,0.00,,---,0.00,VWS V14.01,2013-06-05 00:55:00,
2013-06-04 21:00:00,62.4,33.7,0.00,SSE,149,0.0,0.0,34,0.00,,---,0.00,VWS V14.01,2013-06-05 01:00:00,
2013-06-04 21:06:00,62.2,33.5,0.00,SSE,149,0.0,0.0,34,0.00,,---,0.00,VWS V14.01,2013-06-05 01:06:00,
2013-06-04 21:11:00,61.9,33.2,0.00,SSE,149,0.0,0.0,34,0.00,,---,0.00,VWS V14.01,2013-06-05 01:11:00,
2013-06-04 21:16:00,61.7,33.1,0.00,SSE,149,0.0,0.0,34,0.00,,---,0.00,VWS V14.01,2013-06-05 01:16:00,
2013-06-04 21:21:00,61.5,32.9,0.00,SSE,149,0.0,0.0,34,0.00,,---,0.00,VWS V14.01,2013-06-05 01:21:00,
2013-06-04 21:26:00,61.3,32.8,0.00,SSE,149,0.0,0.0,34,0.00,,---,0.00,VWS V14.01,2013-06-05 01:26:00,
2013-06-04 21:31:00,60.8,32.3,0.00,SSE,149,0.0,0.0,34,0.00,,---,0.00,VWS V14.01,2013-06-05 01:31:00,
2013-06-04 21:37:00,60.4,32.7,0.00,SSE,149,0.0,0.0,35,0.00,,---,0.00,VWS V14.01,2013-06-05 01:37:00,
2013-06-04 21:42:00,60.3,32.5,0.00,SSE,149,0.0,0.0,35,0.00,,---,0.00,VWS V14.01,2013-06-05 01:42:00,
2013-06-04 21:48:00,60.1,32.4,0.00,SSE,149,0.0,0.0,35,0.00,,---,0.00,VWS V14.01,2013-06-05 01:48:00,
2013-06-04 21:53:00,60.1,32.4,0.00,SSE,149,0.0,0.0,35,0.00,,---,0.00,VWS V14.01,2013-06-05 01:53:00,
2013-06-04 21:59:00,59.9,32.2,0.00,SSE,149,0.0,0.0,35,0.00,,---,0.00,VWS V14.01,2013-06-05 01:59:00,
2013-06-04 22:04:00,59.9,32.2,0.00,SSE,149,0.0,0.0,35,0.00,,---,0.00,VWS V14.01,2013-06-05 02:04:00,
2013-06-04 22:10:00,59.7,32.0,0.00,SSE,149,0.0,0.0,35,0.00,,---,0.00,VWS V14.01,2013-06-05 02:10:00,
2013-06-04 22:17:00,59.7,32.0,0.00,SSE,149,0.0,0.0,35,0.00,,---,0.00,VWS V14.01,2013-06-05 02:17:00,
2013-06-04 22:22:00,59.5,31.9,0.00,SSE,149,0.0,0.0,35,0.00,,---,0.00,VWS V14.01,2013-06-05 02:22:00,
2013-06-04 22:28:00,59.4,31.7,0.00,SSE,149,0.0,0.0,35,0.00,,---,0.00,VWS V14.01,2013-06-05 02:28:00,
2013-06-04 22:33:00,59.0,31.4,0.00,SSE,149,0.0,0.0,35,0.00,,---,0.00,VWS V14.01,2013-06-05 02:33:00,
2013-06-04 22:38:00,58.6,31.1,0.00,SSE,149,0.0,0.0,35,0.00,,---,0.00,VWS V14.01,2013-06-05 02:38:00,
2013-06-04 22:44:00,58.1,30.6,0.00,SSE,149,0.0,0.0,35,0.00,,---,0.00,VWS V14.01,2013-06-05 02:44:00,
2013-06-04 22:50:00,57.9,30.5,0.00,SSE,149,0.0,0.0,35,0.00,,---,0.00,VWS V14.01,2013-06-05 02:50:00,
2013-06-04 22:55:00,57.7,30.3,0.00,SSE,149,0.0,0.0,35,0.00,,---,0.00,VWS V14.01,2013-06-05 02:55:00,
2013-06-04 23:00:00,57.6,30.1,0.00,SSE,149,0.0,0.0,35,0.00,,---,0.00,VWS V14.01,2013-06-05 03:00:00,
2013-06-04 23:06:00,57.4,30.0,0.00,SSE,149,0.0,0.0,35,0.00,,---,0.00,VWS V14.01,2013-06-05 03:06:00,
2013-06-04 23:11:00,57.4,30.0,0.00,SSE,149,0.0,0.0,35,0.00,,---,0.00,VWS V14.01,2013-06-05 03:11:00,
2013-06-04 23:17:00,57.2,29.8,0.00,SSE,149,0.0,0.0,35,0.00,,---,0.00,VWS V14.01,2013-06-05 03:17:00,
2013-06-04 23:23:00,56.8,30.2,0.00,SSE,149,0.0,0.0,36,0.00,,---,0.00,VWS V14.01,2013-06-05 03:23:00,
2013-06-04 23:29:00,56.7,29.3,0.00,SSE,149,0.0,0.0,35,0.00,,---,0.00,VWS V14.01,2013-06-05 03:29:00,
2013-06-04 23:34:00,56.5,29.2,0.00,SSE,149,0.0,0.0,35,0.00,,---,0.00,VWS V14.01,2013-06-05 03:34:00,
2013-06-04 23:40:00,56.3,29.0,0.00,SSE,149,0.0,0.0,35,0.00,,---,0.00,VWS V14.01,2013-06-05 03:40:00,
2013-06-04 23:45:00,55.9,29.4,0.00,SSE,149,0.0,0.0,36,0.00,,---,0.00,VWS V14.01,2013-06-05 03:45:00,
2013-06-04 23:51:00,55.8,29.2,0.00,SSE,149,0.0,0.0,36,0.00,,---,0.00,VWS V14.01,2013-06-05 03:51:00,
2013-06-04 23:56:00,55.6,29.1,0.00,SSE,149,0.0,0.0,36,0.00,,---,0.00,VWS V14.01,2013-06-05 03:56:00,